Página principal
METAR-TAF:

METAR-TAF

Aeroportos :

Aeroporto Internacional de Xangai Pudong

Xangai-Pudong, China

latitude: 31-07N, longitude: 121-46E, altura: 4 m

Observação actual do tempo

O boletim foi feito há 44 minutos, às 20:30 UTC
Vento 10 kt de nor-noroeste
Temperatura 2°C
Humidade 80%
Pressão 1033 hPa
Visibilidade 10 km ou mais
sem nuvens abaixo de 1500 metros e sem cumulonimbus

METAR: ZSPD 122030Z 33005MPS CAVOK 02/M01 Q1033 NOSIG

Hora: 05:14 (21:14 UTC)

Previsão

O boletim foi feito há 5 horas e 57 minutos, às 15:17 UTC
Previsão válida de 12 às 18 UTC a 13 às 18 UTC
Vento 8 kt de nor-noroeste
Visibilidade: 5000 m
Nuvens dispersasa uma altura de 2000 ft
neblina

TAF: ZSPD 121517Z 1218/1318 34004MPS 5000 BR SCT020 TX09/1306Z TN01/1221Z

Observações e previsões do tempo de mais de 4000 aeroportos (mensagens METAR e TAF).

As estações disponíveis são os pontos amarelos e vermelhos sobre o mapa.

Mova o rato sobre o mapa para ver o nome da estação.

Depois clique no ponto para visualizar as observações e previsões meteorológicas.

Para alterar o mapa : clique nos botões verdes com uma cruz preta para aumentar o zoom; no botão verde com uma pitada de zoom; ou nas setas verdes para mapas adjacentes.


METAR-TAF: